createdAt,value
2019-02-02T00:00:43.033Z,493.17
2019-02-02T00:03:10.114Z,295.80
2019-02-02T00:05:36.647Z,270.90
2019-02-02T00:08:04.093Z,378.50
2019-02-02T00:10:30.537Z,335.80
2019-02-02T00:12:56.910Z,257.43
2019-02-02T00:15:23.332Z,650.17
2019-02-02T00:17:50.209Z,363.13
2019-02-02T00:20:16.878Z,179.67
2019-02-02T00:22:43.281Z,140.97
2019-02-02T00:25:09.843Z,341.40
2019-02-02T00:27:41.647Z,248.67
2019-02-02T00:30:09.437Z,243.00
2019-02-02T00:32:35.789Z,237.37
2019-02-02T00:35:02.180Z,277.80
2019-02-02T00:37:28.642Z,326.27
2019-02-02T00:39:54.981Z,154.57
2019-02-02T00:42:21.343Z,128.03
2019-02-02T00:44:47.733Z,155.10
2019-02-02T00:47:14.232Z,86.10
2019-02-02T00:49:40.669Z,90.87
2019-02-02T00:52:07.567Z,101.30
2019-02-02T00:54:34.244Z,101.00
2019-02-02T00:57:00.643Z,91.23
2019-02-02T00:59:27.171Z,112.67
2019-02-02T01:01:53.578Z,80.67
2019-02-02T01:04:20.005Z,84.83
2019-02-02T01:06:46.385Z,80.40
2019-02-02T01:09:14.876Z,100.97
2019-02-02T01:11:41.428Z,88.40
2019-02-02T01:14:07.927Z,79.50
2019-02-02T01:16:34.313Z,81.80
2019-02-02T01:19:00.784Z,71.60
2019-02-02T01:21:27.156Z,72.07
2019-02-02T01:23:53.557Z,135.10
2019-02-02T01:26:19.895Z,92.73
2019-02-02T01:28:46.308Z,72.37
2019-02-02T01:31:12.787Z,73.70
2019-02-02T01:33:39.180Z,72.43
2019-02-02T01:36:05.561Z,77.73
2019-02-02T01:38:32.042Z,72.50
2019-02-02T01:40:58.535Z,71.97
2019-02-02T01:43:24.946Z,74.13
2019-02-02T01:45:51.349Z,78.53
2019-02-02T01:48:17.743Z,75.90
2019-02-02T01:50:44.183Z,75.67
2019-02-02T01:53:10.566Z,77.80
2019-02-02T01:55:36.975Z,75.80
2019-02-02T01:58:03.543Z,74.47
2019-02-02T02:00:31.797Z,73.10
2019-02-02T02:02:58.304Z,83.93
2019-02-02T02:05:24.732Z,75.10
2019-02-02T02:07:51.262Z,83.40
2019-02-02T02:10:18.951Z,83.37
2019-02-02T02:12:45.701Z,88.83
2019-02-02T02:15:14.477Z,81.70
2019-02-02T02:17:41.407Z,84.93
2019-02-02T02:20:10.465Z,82.53
2019-02-02T02:22:41.045Z,87.37
2019-02-02T02:25:08.278Z,87.13
2019-02-02T02:27:34.660Z,90.00
2019-02-02T02:30:01.092Z,86.00
2019-02-02T02:32:27.512Z,83.23
2019-02-02T02:34:53.880Z,92.63
2019-02-02T02:37:20.182Z,84.50
2019-02-02T02:39:46.559Z,103.47
2019-02-02T02:42:12.990Z,84.97
2019-02-02T02:44:39.381Z,92.67
2019-02-02T02:47:05.718Z,90.70
2019-02-02T02:49:33.227Z,95.77
2019-02-02T02:51:59.539Z,93.47
2019-02-02T02:54:25.922Z,89.30
2019-02-02T02:56:52.292Z,84.40
2019-02-02T02:59:18.661Z,96.07
2019-02-02T03:01:45.110Z,98.97
2019-02-02T03:04:11.430Z,97.83
2019-02-02T03:06:37.929Z,96.33
2019-02-02T03:09:06.905Z,98.97
2019-02-02T03:11:34.492Z,98.33
2019-02-02T03:14:00.817Z,98.17
2019-02-02T03:16:27.157Z,103.33
2019-02-02T03:18:54.507Z,103.43
2019-02-02T03:21:20.921Z,96.03
2019-02-02T03:23:47.408Z,101.90
2019-02-02T03:26:13.805Z,99.40
2019-02-02T03:28:40.159Z,93.50
2019-02-02T03:31:06.498Z,106.97
2019-02-02T03:33:32.852Z,111.03
2019-02-02T03:35:59.233Z,103.03
2019-02-02T03:38:25.580Z,107.90
2019-02-02T03:40:52.127Z,101.80
2019-02-02T03:43:18.485Z,95.43
2019-02-02T03:45:44.865Z,99.47
2019-02-02T03:48:11.197Z,108.30
2019-02-02T03:50:37.580Z,105.57
2019-02-02T03:53:03.895Z,108.37
2019-02-02T03:55:30.294Z,115.50
2019-02-02T03:57:56.704Z,103.63
2019-02-02T04:00:23.199Z,110.33
2019-02-02T04:02:49.570Z,103.57
2019-02-02T04:05:24.411Z,106.20
2019-02-02T04:07:52.224Z,106.47
2019-02-02T04:10:18.570Z,102.47
2019-02-02T04:12:45.063Z,107.70
2019-02-02T04:15:14.423Z,105.33
2019-02-02T04:17:40.859Z,105.60
2019-02-02T04:20:13.296Z,102.77
2019-02-02T04:22:39.828Z,118.13
2019-02-02T04:25:07.313Z,113.20
2019-02-02T04:27:33.628Z,108.83
2019-02-02T04:30:00.002Z,118.27
2019-02-02T04:32:26.396Z,111.33
2019-02-02T04:34:52.793Z,113.47
2019-02-02T04:37:19.140Z,102.13
2019-02-02T04:39:45.481Z,113.20
2019-02-02T04:42:11.876Z,100.83
2019-02-02T04:44:38.267Z,96.93
2019-02-02T04:47:04.690Z,114.10
2019-02-02T04:49:31.081Z,106.67
2019-02-02T04:51:57.491Z,103.27
2019-02-02T04:54:23.896Z,115.10
2019-02-02T04:56:50.248Z,98.77
2019-02-02T04:59:16.601Z,104.57
2019-02-02T05:01:42.974Z,110.03
2019-02-02T05:04:09.321Z,108.37
2019-02-02T05:06:35.714Z,109.30
2019-02-02T05:09:05.314Z,116.80
2019-02-02T05:11:32.201Z,121.37
2019-02-02T05:13:58.566Z,143.10
2019-02-02T05:16:24.923Z,126.17
2019-02-02T05:18:51.252Z,121.87
2019-02-02T05:21:17.658Z,135.77
2019-02-02T05:23:43.995Z,123.73
2019-02-02T05:26:10.358Z,123.73
2019-02-02T05:28:36.704Z,123.20
2019-02-02T05:31:03.191Z,133.23
2019-02-02T05:33:29.602Z,117.23
2019-02-02T05:35:55.968Z,111.97
2019-02-02T05:38:22.337Z,117.80
2019-02-02T05:40:48.739Z,115.83
2019-02-02T05:43:15.152Z,109.47
2019-02-02T05:45:41.530Z,111.60
2019-02-02T05:48:07.885Z,112.17
2019-02-02T05:50:34.278Z,121.60
2019-02-02T05:53:00.604Z,137.57
2019-02-02T05:55:27.007Z,129.10
2019-02-02T05:57:53.328Z,119.97
2019-02-02T06:00:33.131Z,118.13
2019-02-02T06:02:59.461Z,106.10
2019-02-02T06:05:25.889Z,123.97
2019-02-02T06:07:52.247Z,118.83
2019-02-02T06:10:19.086Z,138.17
2019-02-02T06:12:45.446Z,127.83
2019-02-02T06:15:12.515Z,106.83
2019-02-02T06:17:38.867Z,122.23
2019-02-02T06:20:08.838Z,112.43
2019-02-02T06:22:35.214Z,119.40
2019-02-02T06:25:01.634Z,94.57
2019-02-02T06:27:27.989Z,108.70
2019-02-02T06:30:04.038Z,134.50
2019-02-02T06:32:22.547Z,144.07
2019-02-02T06:34:48.961Z,144.07
2019-02-02T06:37:15.343Z,158.80
2019-02-02T06:39:41.696Z,134.57
2019-02-02T06:42:08.071Z,128.57
2019-02-02T06:44:34.403Z,128.10
2019-02-02T06:47:00.759Z,150.50
2019-02-02T06:49:27.120Z,115.83
2019-02-02T06:51:53.466Z,114.10
2019-02-02T06:54:19.895Z,134.17
2019-02-02T06:56:46.223Z,145.03
2019-02-02T06:59:12.586Z,122.67
2019-02-02T07:01:38.925Z,118.27
2019-02-02T07:04:05.300Z,118.87
2019-02-02T07:06:31.628Z,105.67
2019-02-02T07:08:58.015Z,114.80
2019-02-02T07:11:24.389Z,101.73
2019-02-02T07:13:51.585Z,88.83
2019-02-02T07:16:19.975Z,101.00
2019-02-02T07:18:47.342Z,92.97
2019-02-02T07:21:14.720Z,100.97
2019-02-02T07:23:42.136Z,103.77
2019-02-02T07:26:09.517Z,94.07
2019-02-02T07:28:36.185Z,95.27
2019-02-02T07:31:02.836Z,92.40
2019-02-02T07:33:29.249Z,101.47
2019-02-02T07:35:55.631Z,97.57
2019-02-02T07:38:22.134Z,98.23
2019-02-02T07:40:48.524Z,102.73
2019-02-02T07:43:14.946Z,101.43
2019-02-02T07:45:41.433Z,95.00
2019-02-02T07:48:07.809Z,100.10
2019-02-02T07:50:34.247Z,92.63
2019-02-02T07:53:00.602Z,94.07
2019-02-02T07:55:26.990Z,86.10
2019-02-02T07:57:53.384Z,84.37
2019-02-02T08:00:41.164Z,112.73
2019-02-02T08:03:06.197Z,131.10
2019-02-02T08:05:32.889Z,234.17
2019-02-02T08:07:59.335Z,274.97
2019-02-02T08:10:25.786Z,426.40
2019-02-02T08:12:52.217Z,161.47
2019-02-02T08:15:21.776Z,146.17
2019-02-02T08:17:48.135Z,723.93
2019-02-02T08:20:14.630Z,110.57
2019-02-02T08:22:41.056Z,177.90
2019-02-02T08:25:10.553Z,273.33
2019-02-02T08:27:37.155Z,531.53
2019-02-02T08:30:16.787Z,434.37
2019-02-02T08:32:44.409Z,649.90
2019-02-02T08:35:11.048Z,851.43
2019-02-02T08:37:37.533Z,481.17
2019-02-02T08:40:07.621Z,246.77
2019-02-02T08:42:34.124Z,278.13
2019-02-02T08:45:00.553Z,378.30
2019-02-02T08:47:27.170Z,430.67
2019-02-02T08:49:53.550Z,135.50
2019-02-02T08:52:20.026Z,315.03
2019-02-02T08:54:47.184Z,321.73
2019-02-02T08:57:13.813Z,311.87
2019-02-02T08:59:40.193Z,239.13
2019-02-02T09:02:06.636Z,415.87
2019-02-02T09:04:33.285Z,233.50
2019-02-02T09:07:00.247Z,344.70
2019-02-02T09:09:27.693Z,219.20
2019-02-02T09:11:54.154Z,310.93
2019-02-02T09:14:20.828Z,141.17
2019-02-02T09:16:47.439Z,140.53
2019-02-02T09:19:13.854Z,146.93
2019-02-02T09:21:40.254Z,171.30
2019-02-02T09:24:06.725Z,146.03
2019-02-02T09:26:33.113Z,78.23
2019-02-02T09:28:59.481Z,108.17
2019-02-02T09:31:25.895Z,111.90
2019-02-02T09:33:52.417Z,119.37
2019-02-02T09:36:18.946Z,111.47
2019-02-02T09:38:45.387Z,177.77
2019-02-02T09:41:11.844Z,215.00
2019-02-02T09:43:39.665Z,136.47
2019-02-02T09:46:06.924Z,134.63
2019-02-02T09:48:33.954Z,181.50
2019-02-02T09:51:00.450Z,362.50
2019-02-02T09:53:26.973Z,191.60
2019-02-02T09:55:53.825Z,191.40
2019-02-02T09:58:20.375Z,136.60
2019-02-02T10:00:47.210Z,584.27
2019-02-02T10:03:13.624Z,774.17
2019-02-02T10:05:40.128Z,267.83
2019-02-02T10:08:06.444Z,72.03
2019-02-02T10:10:33.556Z,83.73
2019-02-02T10:13:00.072Z,485.30
2019-02-02T10:15:27.533Z,629.50
2019-02-02T10:17:54.502Z,911.47
2019-02-02T10:20:29.648Z,644.90
2019-02-02T10:22:57.543Z,457.57
2019-02-02T10:25:26.939Z,675.27
2019-02-02T10:27:53.502Z,222.50
2019-02-02T10:30:32.385Z,549.63
2019-02-02T10:32:59.989Z,295.73
2019-02-02T10:35:26.801Z,200.97
2019-02-02T10:37:53.285Z,186.73
2019-02-02T10:40:19.812Z,143.77
2019-02-02T10:42:46.328Z,109.47
2019-02-02T10:45:14.698Z,125.17
2019-02-02T10:47:42.929Z,225.43
2019-02-02T10:50:12.897Z,124.83
2019-02-02T10:52:39.746Z,82.60
2019-02-02T10:55:09.410Z,103.87
2019-02-02T10:57:36.098Z,94.23
2019-02-02T11:00:06.265Z,375.83
2019-02-02T11:02:32.836Z,254.87
2019-02-02T11:04:59.300Z,200.03
2019-02-02T11:07:25.823Z,112.70
2019-02-02T11:09:52.220Z,167.90
2019-02-02T11:12:19.026Z,152.10
2019-02-02T11:14:45.773Z,292.87
2019-02-02T11:17:12.673Z,218.67
2019-02-02T11:19:39.083Z,211.50
2019-02-02T11:22:05.581Z,240.07
2019-02-02T11:24:32.100Z,186.60
2019-02-02T11:26:58.598Z,293.10
2019-02-02T11:29:24.969Z,213.00
2019-02-02T11:32:02.221Z,212.73
2019-02-02T11:34:19.593Z,163.33
2019-02-02T11:36:46.105Z,243.33
2019-02-02T11:39:12.525Z,271.50
2019-02-02T11:41:38.933Z,76.60
2019-02-02T11:44:05.308Z,101.77
2019-02-02T11:46:31.724Z,80.53
2019-02-02T11:48:58.193Z,58.33
2019-02-02T11:51:24.650Z,117.10
2019-02-02T11:53:51.102Z,66.30
2019-02-02T11:56:17.494Z,45.50
2019-02-02T11:58:44.421Z,131.97
2019-02-02T12:01:10.975Z,103.57
2019-02-02T12:03:38.001Z,67.37
2019-02-02T12:06:05.078Z,105.90
2019-02-02T12:08:31.526Z,205.03
2019-02-02T12:10:57.882Z,90.60
2019-02-02T12:13:24.300Z,67.23
2019-02-02T12:15:51.487Z,118.10
2019-02-02T12:18:17.957Z,69.13
2019-02-02T12:20:44.449Z,95.60
2019-02-02T12:23:10.900Z,84.80
2019-02-02T12:25:37.283Z,86.67
2019-02-02T12:28:04.574Z,81.93
2019-02-02T12:30:32.780Z,74.23
2019-02-02T12:33:03.027Z,82.20
2019-02-02T12:35:28.468Z,66.97
2019-02-02T12:37:55.643Z,168.40
2019-02-02T12:40:24.598Z,246.37
2019-02-02T12:42:51.090Z,178.90
2019-02-02T12:45:23.089Z,182.97
2019-02-02T12:47:49.563Z,322.17
2019-02-02T12:50:19.968Z,366.20
2019-02-02T12:52:46.434Z,209.03
2019-02-02T12:55:12.891Z,148.70
2019-02-02T12:57:39.288Z,171.80
2019-02-02T13:00:14.626Z,198.30
2019-02-02T13:02:41.019Z,79.43
2019-02-02T13:05:07.885Z,77.63
2019-02-02T13:07:34.247Z,67.27
2019-02-02T13:10:00.673Z,92.97
2019-02-02T13:12:27.025Z,102.87
2019-02-02T13:14:53.485Z,97.93
2019-02-02T13:17:19.972Z,57.27
2019-02-02T13:19:46.408Z,66.17
2019-02-02T13:22:12.833Z,78.13
2019-02-02T13:24:39.248Z,77.07
2019-02-02T13:27:05.652Z,66.70
2019-02-02T13:29:32.052Z,81.93
2019-02-02T13:31:58.508Z,65.50
2019-02-02T13:34:24.890Z,67.13
2019-02-02T13:36:51.223Z,68.30
2019-02-02T13:39:17.664Z,75.47
2019-02-02T13:41:44.061Z,70.73
2019-02-02T13:44:10.548Z,74.90
2019-02-02T13:46:36.913Z,75.67
2019-02-02T13:49:03.419Z,73.80
2019-02-02T13:51:29.757Z,95.83
2019-02-02T13:53:56.128Z,114.47
2019-02-02T13:56:22.549Z,119.60
2019-02-02T13:58:48.992Z,150.03
2019-02-02T14:01:15.371Z,195.67
2019-02-02T14:03:41.841Z,146.23
2019-02-02T14:06:08.330Z,86.23
2019-02-02T14:08:34.801Z,101.30
2019-02-02T14:11:01.162Z,123.37
2019-02-02T14:13:27.703Z,104.53
2019-02-02T14:15:54.116Z,88.87
2019-02-02T14:18:20.605Z,102.27
2019-02-02T14:20:50.013Z,321.37
2019-02-02T14:23:16.478Z,130.70
2019-02-02T14:25:42.863Z,96.23
2019-02-02T14:28:09.435Z,94.50
2019-02-02T14:30:35.954Z,123.17
2019-02-02T14:33:13.605Z,95.80
2019-02-02T14:35:31.848Z,80.00
2019-02-02T14:37:58.369Z,80.00
2019-02-02T14:40:24.872Z,83.30
2019-02-02T14:42:51.305Z,89.80
2019-02-02T14:45:26.742Z,90.87
2019-02-02T14:47:52.112Z,77.37
2019-02-02T14:50:20.082Z,104.03
2019-02-02T14:52:47.263Z,113.33
2019-02-02T14:55:16.395Z,132.77
2019-02-02T14:57:42.871Z,223.07
2019-02-02T15:00:13.093Z,138.47
2019-02-02T15:02:39.689Z,133.27
2019-02-02T15:05:09.501Z,138.07
2019-02-02T15:07:37.034Z,117.93
2019-02-02T15:10:07.139Z,91.73
2019-02-02T15:12:33.703Z,117.27
2019-02-02T15:15:00.185Z,124.97
2019-02-02T15:17:26.873Z,126.03
2019-02-02T15:19:53.222Z,559.83
2019-02-02T15:22:19.590Z,267.97
2019-02-02T15:24:46.000Z,150.37
2019-02-02T15:27:14.711Z,117.13
2019-02-02T15:29:40.566Z,139.20
2019-02-02T15:32:07.028Z,122.40
2019-02-02T15:34:34.118Z,102.43
2019-02-02T15:37:01.401Z,106.93
2019-02-02T15:39:28.026Z,116.53
2019-02-02T15:41:54.458Z,144.40
2019-02-02T15:44:20.937Z,391.80
2019-02-02T15:46:49.125Z,247.50
2019-02-02T15:49:15.579Z,399.60
2019-02-02T15:51:42.487Z,345.33
2019-02-02T15:54:09.233Z,182.90
2019-02-02T15:56:35.847Z,131.57
2019-02-02T15:59:02.536Z,101.03
2019-02-02T16:01:28.991Z,114.90
2019-02-02T16:03:55.526Z,96.40
2019-02-02T16:06:21.935Z,94.53
2019-02-02T16:08:48.366Z,93.73
2019-02-02T16:11:14.767Z,82.93
2019-02-02T16:13:41.280Z,84.43
2019-02-02T16:16:07.729Z,83.00
2019-02-02T16:18:34.133Z,80.40
2019-02-02T16:21:00.529Z,85.17
2019-02-02T16:23:27.960Z,90.77
2019-02-02T16:25:54.383Z,93.50
2019-02-02T16:28:20.787Z,95.87
2019-02-02T16:30:47.348Z,88.27
2019-02-02T16:33:14.931Z,100.00
2019-02-02T16:35:41.933Z,186.70
2019-02-02T16:38:09.788Z,118.97
2019-02-02T16:40:37.004Z,126.23
2019-02-02T16:43:04.144Z,109.47
2019-02-02T16:45:32.356Z,112.23
2019-02-02T16:47:58.918Z,124.80
2019-02-02T16:50:26.055Z,123.17
2019-02-02T16:52:52.881Z,143.10
2019-02-02T16:55:19.450Z,154.33
2019-02-02T16:57:46.858Z,187.90
2019-02-02T17:00:19.434Z,175.83
2019-02-02T17:02:46.009Z,165.50
2019-02-02T17:05:12.606Z,161.20
2019-02-02T17:07:41.596Z,199.17
2019-02-02T17:10:12.173Z,179.00
2019-02-02T17:12:39.044Z,209.50
2019-02-02T17:15:08.467Z,184.23
2019-02-02T17:17:34.967Z,186.00
2019-02-02T17:20:01.574Z,254.13
2019-02-02T17:22:28.273Z,280.83
2019-02-02T17:24:54.689Z,366.17
2019-02-02T17:27:21.290Z,468.00
2019-02-02T17:29:47.855Z,495.40
2019-02-02T17:32:14.311Z,490.13
2019-02-02T17:34:40.870Z,472.30
2019-02-02T17:37:07.644Z,505.50
2019-02-02T17:39:34.580Z,456.90
2019-02-02T17:42:03.847Z,469.27
2019-02-02T17:44:29.419Z,453.63
2019-02-02T17:46:55.891Z,453.70
2019-02-02T17:49:22.460Z,446.47
2019-02-02T17:51:48.915Z,426.67
2019-02-02T17:54:15.331Z,422.07
2019-02-02T17:56:41.788Z,424.93
2019-02-02T17:59:08.305Z,432.87
2019-02-02T18:01:34.762Z,415.70
2019-02-02T18:04:01.218Z,373.80
2019-02-02T18:06:27.814Z,384.70
2019-02-02T18:08:55.326Z,362.40
2019-02-02T18:11:21.765Z,370.53
2019-02-02T18:13:48.415Z,425.00
2019-02-02T18:16:14.865Z,549.97
2019-02-02T18:18:41.392Z,416.77
2019-02-02T18:21:07.839Z,235.77
2019-02-02T18:23:34.198Z,203.73
2019-02-02T18:26:00.894Z,190.63
2019-02-02T18:28:27.640Z,183.73
2019-02-02T18:30:54.180Z,207.17
2019-02-02T18:33:20.695Z,273.30
2019-02-02T18:35:47.305Z,261.37
2019-02-02T18:38:13.813Z,258.70
2019-02-02T18:40:40.309Z,264.33
2019-02-02T18:43:06.848Z,261.83
2019-02-02T18:45:33.267Z,252.20
2019-02-02T18:47:59.772Z,212.20
2019-02-02T18:50:26.358Z,175.87
2019-02-02T18:52:54.419Z,170.93
2019-02-02T18:55:23.794Z,153.67
2019-02-02T18:57:50.273Z,142.60
2019-02-02T19:00:19.088Z,130.47
2019-02-02T19:02:45.995Z,127.23
2019-02-02T19:05:13.418Z,133.90
2019-02-02T19:07:41.013Z,116.73
2019-02-02T19:10:13.563Z,113.30
2019-02-02T19:12:40.206Z,118.67
2019-02-02T19:15:08.831Z,108.43
2019-02-02T19:17:35.416Z,126.33
2019-02-02T19:20:05.277Z,124.40
2019-02-02T19:22:32.455Z,140.73
2019-02-02T19:24:59.376Z,123.93
2019-02-02T19:27:25.862Z,131.40
2019-02-02T19:29:52.673Z,190.77
2019-02-02T19:32:19.075Z,191.43
2019-02-02T19:34:45.567Z,143.27
2019-02-02T19:37:12.067Z,127.97
2019-02-02T19:39:38.432Z,127.70
2019-02-02T19:42:05.362Z,119.03
2019-02-02T19:44:31.842Z,123.80
2019-02-02T19:46:58.252Z,136.50
2019-02-02T19:49:24.674Z,124.50
2019-02-02T19:51:51.075Z,130.60
2019-02-02T19:54:17.555Z,131.20
2019-02-02T19:56:44.620Z,117.70
2019-02-02T19:59:11.342Z,125.57
2019-02-02T20:01:37.767Z,130.03
2019-02-02T20:04:06.592Z,128.30
2019-02-02T20:06:33.477Z,125.50
2019-02-02T20:09:00.389Z,127.20
2019-02-02T20:11:27.369Z,135.90
2019-02-02T20:13:55.189Z,121.67
2019-02-02T20:16:21.627Z,123.83
2019-02-02T20:18:48.037Z,122.50
2019-02-02T20:21:15.270Z,120.30
2019-02-02T20:23:43.166Z,118.20
2019-02-02T20:26:09.884Z,111.90
2019-02-02T20:28:36.305Z,101.40
2019-02-02T20:31:02.914Z,104.13
2019-02-02T20:33:30.568Z,105.97
2019-02-02T20:35:57.074Z,102.00
2019-02-02T20:38:23.523Z,100.30
2019-02-02T20:40:51.850Z,103.40
2019-02-02T20:43:18.254Z,101.17
2019-02-02T20:45:44.741Z,94.90
2019-02-02T20:48:11.302Z,97.07
2019-02-02T20:50:38.053Z,99.63
2019-02-02T20:53:04.863Z,103.23
2019-02-02T20:55:37.606Z,108.23
2019-02-02T20:58:05.193Z,109.47
2019-02-02T21:00:31.981Z,114.40
2019-02-02T21:02:58.829Z,109.50
2019-02-02T21:05:25.289Z,101.77
2019-02-02T21:07:51.660Z,115.43
2019-02-02T21:10:21.198Z,108.37
2019-02-02T21:12:47.679Z,113.37
2019-02-02T21:15:14.264Z,122.17
2019-02-02T21:17:43.178Z,127.33
2019-02-02T21:20:21.060Z,122.43
2019-02-02T21:22:48.120Z,118.23
2019-02-02T21:25:15.277Z,119.87
2019-02-02T21:27:42.274Z,127.47
2019-02-02T21:30:19.975Z,116.27
2019-02-02T21:32:47.412Z,118.70
2019-02-02T21:35:13.813Z,123.20
2019-02-02T21:37:40.402Z,127.90
2019-02-02T21:40:18.613Z,128.77
2019-02-02T21:42:45.464Z,101.53
2019-02-02T21:45:13.446Z,111.47
2019-02-02T21:47:41.062Z,123.57
2019-02-02T21:50:16.655Z,118.53
2019-02-02T21:52:44.692Z,125.03
2019-02-02T21:55:16.570Z,106.93
2019-02-02T21:57:43.239Z,109.93
2019-02-02T22:00:16.198Z,120.37
2019-02-02T22:02:42.741Z,115.33
2019-02-02T22:05:09.355Z,122.70
2019-02-02T22:07:36.343Z,113.07
2019-02-02T22:10:06.557Z,112.83
2019-02-02T22:12:33.021Z,113.40
2019-02-02T22:14:59.480Z,110.73
2019-02-02T22:17:26.498Z,107.43
2019-02-02T22:19:52.853Z,111.27
2019-02-02T22:22:19.266Z,110.80
2019-02-02T22:24:45.915Z,113.60
2019-02-02T22:27:12.487Z,126.30
2019-02-02T22:29:38.935Z,125.67
2019-02-02T22:32:05.859Z,117.23
2019-02-02T22:34:32.855Z,112.17
2019-02-02T22:36:59.475Z,119.80
2019-02-02T22:39:25.830Z,120.70
2019-02-02T22:41:52.394Z,123.23
2019-02-02T22:44:19.025Z,126.43
2019-02-02T22:46:45.563Z,133.47
2019-02-02T22:49:12.267Z,124.43
2019-02-02T22:51:38.709Z,126.53
2019-02-02T22:54:06.378Z,124.23
2019-02-02T22:56:32.905Z,122.33
2019-02-02T22:58:59.290Z,109.13
2019-02-02T23:01:27.961Z,109.73
2019-02-02T23:03:58.139Z,105.23
2019-02-02T23:06:40.781Z,98.77
2019-02-02T23:09:32.144Z,105.23
2019-02-02T23:12:18.269Z,102.83
2019-02-02T23:15:06.682Z,95.53
2019-02-02T23:17:33.352Z,88.23
2019-02-02T23:20:00.664Z,88.87
2019-02-02T23:22:27.556Z,90.27
2019-02-02T23:24:54.030Z,92.13
2019-02-02T23:27:20.442Z,92.80
2019-02-02T23:29:47.723Z,103.60
2019-02-02T23:32:14.784Z,91.43
2019-02-02T23:34:41.270Z,99.83
2019-02-02T23:37:07.801Z,97.30
2019-02-02T23:39:34.215Z,96.77
2019-02-02T23:42:00.770Z,95.37
2019-02-02T23:44:27.123Z,97.03
2019-02-02T23:46:53.504Z,93.37
2019-02-02T23:49:19.815Z,96.60
2019-02-02T23:51:46.385Z,112.23
2019-02-02T23:54:13.027Z,102.40
2019-02-02T23:56:40.869Z,107.90
2019-02-02T23:59:07.365Z,104.60
